sensor_id;sensor_type;location;lat;lon;timestamp;pressure;altitude;pressure_sealevel;temperature;humidity
79563;BME280;69026;50.980;11.314;2023-04-19T00:00:37;99922.34;;;17.38;56.74
79563;BME280;69026;50.980;11.314;2023-04-19T00:03:04;99925.31;;;17.36;56.80
79563;BME280;69026;50.980;11.314;2023-04-19T00:05:31;99920.69;;;17.37;56.77
79563;BME280;69026;50.980;11.314;2023-04-19T00:07:57;99916.03;;;17.37;56.86
79563;BME280;69026;50.980;11.314;2023-04-19T00:10:23;99917.09;;;17.36;56.70
79563;BME280;69026;50.980;11.314;2023-04-19T00:12:49;99911.00;;;17.34;56.84
79563;BME280;69026;50.980;11.314;2023-04-19T00:15:15;99911.00;;;17.34;56.64
79563;BME280;69026;50.980;11.314;2023-04-19T00:17:40;99905.53;;;17.34;56.96
79563;BME280;69026;50.980;11.314;2023-04-19T00:20:07;99905.53;;;17.34;56.81
79563;BME280;69026;50.980;11.314;2023-04-19T00:22:34;99904.69;;;17.34;56.95
79563;BME280;69026;50.980;11.314;2023-04-19T00:25:01;99904.69;;;17.34;56.86
79563;BME280;69026;50.980;11.314;2023-04-19T00:27:26;99903.88;;;17.33;56.83
79563;BME280;69026;50.980;11.314;2023-04-19T00:29:52;99905.53;;;17.34;56.69
79563;BME280;69026;50.980;11.314;2023-04-19T00:32:18;99901.13;;;17.33;56.73
79563;BME280;69026;50.980;11.314;2023-04-19T00:34:44;99909.34;;;17.33;56.75
79563;BME280;69026;50.980;11.314;2023-04-19T00:37:10;99892.91;;;17.33;56.78
79563;BME280;69026;50.980;11.314;2023-04-19T00:39:38;99895.66;;;17.33;56.83
79563;BME280;69026;50.980;11.314;2023-04-19T00:42:04;99898.38;;;17.33;56.88
79563;BME280;69026;50.980;11.314;2023-04-19T00:44:30;99903.03;;;17.33;56.96
79563;BME280;69026;50.980;11.314;2023-04-19T00:46:56;99903.88;;;17.33;56.91
79563;BME280;69026;50.980;11.314;2023-04-19T00:49:23;99896.72;;;17.32;56.83
79563;BME280;69026;50.980;11.314;2023-04-19T00:51:50;99900.53;;;17.31;56.68
79563;BME280;69026;50.980;11.314;2023-04-19T00:54:16;99900.53;;;17.31;56.72
79563;BME280;69026;50.980;11.314;2023-04-19T00:56:44;99900.53;;;17.31;56.99
79563;BME280;69026;50.980;11.314;2023-04-19T00:59:11;99893.41;;;17.30;56.64
79563;BME280;69026;50.980;11.314;2023-04-19T01:01:39;99901.63;;;17.30;57.03
79563;BME280;69026;50.980;11.314;2023-04-19T01:04:06;99888.97;;;17.29;57.00
79563;BME280;69026;50.980;11.314;2023-04-19T01:06:37;99890.06;;;17.28;56.83
79563;BME280;69026;50.980;11.314;2023-04-19T01:09:04;99890.91;;;17.29;56.79
79563;BME280;69026;50.980;11.314;2023-04-19T01:11:30;99897.19;;;17.29;56.90
79563;BME280;69026;50.980;11.314;2023-04-19T01:13:56;99897.47;;;17.28;56.76
79563;BME280;69026;50.980;11.314;2023-04-19T01:16:25;99895.56;;;17.28;56.93
79563;BME280;69026;50.980;11.314;2023-04-19T01:18:51;99890.06;;;17.28;56.92
79563;BME280;69026;50.980;11.314;2023-04-19T01:21:17;99893.63;;;17.29;56.83
79563;BME280;69026;50.980;11.314;2023-04-19T01:23:43;99885.41;;;17.29;56.90
79563;BME280;69026;50.980;11.314;2023-04-19T01:26:09;99890.91;;;17.29;56.77
79563;BME280;69026;50.980;11.314;2023-04-19T01:28:35;99893.88;;;17.27;56.86
79563;BME280;69026;50.980;11.314;2023-04-19T01:31:01;99889.25;;;17.28;56.85
79563;BME280;69026;50.980;11.314;2023-04-19T01:33:26;99894.72;;;17.28;56.86
79563;BME280;69026;50.980;11.314;2023-04-19T01:35:52;99891.13;;;17.27;56.75
79563;BME280;69026;50.980;11.314;2023-04-19T01:38:18;99882.91;;;17.27;57.00
79563;BME280;69026;50.980;11.314;2023-04-19T01:40:44;99884.00;;;17.26;56.87
79563;BME280;69026;50.980;11.314;2023-04-19T01:43:12;99884.00;;;17.26;56.88
79563;BME280;69026;50.980;11.314;2023-04-19T01:45:38;99874.13;;;17.25;56.84
79563;BME280;69026;50.980;11.314;2023-04-19T01:48:04;99871.38;;;17.25;56.88
79563;BME280;69026;50.980;11.314;2023-04-19T01:50:30;99871.59;;;17.24;56.93
79563;BME280;69026;50.980;11.314;2023-04-19T01:52:57;99867.78;;;17.25;57.04
79563;BME280;69026;50.980;11.314;2023-04-19T01:55:23;99877.09;;;17.24;56.86
79563;BME280;69026;50.980;11.314;2023-04-19T01:57:50;99873.53;;;17.23;56.93
79563;BME280;69026;50.980;11.314;2023-04-19T02:00:19;99871.84;;;17.22;56.78
79563;BME280;69026;50.980;11.314;2023-04-19T02:02:46;99874.59;;;17.22;56.88
79563;BME280;69026;50.980;11.314;2023-04-19T02:05:12;99867.44;;;17.21;56.69
79563;BME280;69026;50.980;11.314;2023-04-19T02:07:38;99866.38;;;17.22;56.82
79563;BME280;69026;50.980;11.314;2023-04-19T02:10:04;99867.22;;;17.23;56.76
79563;BME280;69026;50.980;11.314;2023-04-19T02:12:31;99873.53;;;17.23;57.00
79563;BME280;69026;50.980;11.314;2023-04-19T02:14:59;99869.97;;;17.23;56.71
79563;BME280;69026;50.980;11.314;2023-04-19T02:17:30;99864.47;;;17.23;56.79
79563;BME280;69026;50.980;11.314;2023-04-19T02:19:57;99870.78;;;17.23;56.75
79563;BME280;69026;50.980;11.314;2023-04-19T02:22:23;99865.31;;;17.23;56.97
79563;BME280;69026;50.980;11.314;2023-04-19T02:24:49;99863.63;;;17.22;56.81
79563;BME280;69026;50.980;11.314;2023-04-19T02:27:16;99865.53;;;17.22;56.84
79563;BME280;69026;50.980;11.314;2023-04-19T02:29:42;99860.06;;;17.22;56.62
79563;BME280;69026;50.980;11.314;2023-04-19T02:32:07;99859.22;;;17.21;56.91
79563;BME280;69026;50.980;11.314;2023-04-19T02:34:34;99850.19;;;17.21;56.71
79563;BME280;69026;50.980;11.314;2023-04-19T02:37:01;99855.66;;;17.21;56.83
79563;BME280;69026;50.980;11.314;2023-04-19T02:39:28;99860.28;;;17.20;56.85
79563;BME280;69026;50.980;11.314;2023-04-19T02:41:54;99853.97;;;17.20;56.82
79563;BME280;69026;50.980;11.314;2023-04-19T02:44:20;99855.91;;;17.19;56.87
79563;BME280;69026;50.980;11.314;2023-04-19T02:46:51;99858.63;;;17.19;57.02
79563;BME280;69026;50.980;11.314;2023-04-19T02:49:17;99858.63;;;17.19;56.87
79563;BME280;69026;50.980;11.314;2023-04-19T02:51:44;99862.47;;;17.18;56.94
79563;BME280;69026;50.980;11.314;2023-04-19T02:54:11;99862.47;;;17.18;56.92
79563;BME280;69026;50.980;11.314;2023-04-19T02:56:38;99865.22;;;17.18;56.66
79563;BME280;69026;50.980;11.314;2023-04-19T02:59:04;99867.09;;;17.17;56.96
79563;BME280;69026;50.980;11.314;2023-04-19T03:01:31;99855.31;;;17.17;57.08
79563;BME280;69026;50.980;11.314;2023-04-19T03:03:58;99850.91;;;17.16;56.95
79563;BME280;69026;50.980;11.314;2023-04-19T03:06:24;99849.00;;;17.16;56.97
79563;BME280;69026;50.980;11.314;2023-04-19T03:08:51;99849.81;;;17.17;56.87
79563;BME280;69026;50.980;11.314;2023-04-19T03:11:17;99855.31;;;17.17;56.77
79563;BME280;69026;50.980;11.314;2023-04-19T03:13:43;99855.31;;;17.17;56.82
79563;BME280;69026;50.980;11.314;2023-04-19T03:16:11;99855.31;;;17.17;56.95
79563;BME280;69026;50.980;11.314;2023-04-19T03:18:38;99844.56;;;17.15;56.84
79563;BME280;69026;50.980;11.314;2023-04-19T03:21:04;99852.81;;;17.15;56.72
79563;BME280;69026;50.980;11.314;2023-04-19T03:23:43;99853.66;;;17.16;56.93
79563;BME280;69026;50.980;11.314;2023-04-19T03:26:08;99855.81;;;17.14;57.01
79563;BME280;69026;50.980;11.314;2023-04-19T03:28:41;99853.88;;;17.14;56.86
79563;BME280;69026;50.980;11.314;2023-04-19T03:31:42;99854.72;;;17.15;56.67
79563;BME280;69026;50.980;11.314;2023-04-19T03:34:11;99856.63;;;17.14;56.94
79563;BME280;69026;50.980;11.314;2023-04-19T03:36:41;99853.06;;;17.14;56.92
79563;BME280;69026;50.980;11.314;2023-04-19T03:39:07;99855.81;;;17.14;56.91
79563;BME280;69026;50.980;11.314;2023-04-19T03:41:35;99847.81;;;17.12;57.04
79563;BME280;69026;50.980;11.314;2023-04-19T03:44:33;99849.72;;;17.12;56.93
79563;BME280;69026;50.980;11.314;2023-04-19T03:47:01;99852.47;;;17.12;57.03
79563;BME280;69026;50.980;11.314;2023-04-19T03:49:31;99846.16;;;17.11;56.77
79563;BME280;69026;50.980;11.314;2023-04-19T03:52:03;99844.47;;;17.10;57.21
79563;BME280;69026;50.980;11.314;2023-04-19T03:54:29;99838.19;;;17.10;56.92
79563;BME280;69026;50.980;11.314;2023-04-19T03:56:55;99847.22;;;17.10;56.99
79563;BME280;69026;50.980;11.314;2023-04-19T03:59:22;99845.34;;;17.11;56.83
79563;BME280;69026;50.980;11.314;2023-04-19T04:01:48;99845.56;;;17.09;56.98
79563;BME280;69026;50.980;11.314;2023-04-19T04:04:14;99844.47;;;17.10;56.94
79563;BME280;69026;50.980;11.314;2023-04-19T04:06:40;99845.34;;;17.11;56.96
79563;BME280;69026;50.980;11.314;2023-04-19T04:09:05;99841.50;;;17.12;56.79
79563;BME280;69026;50.980;11.314;2023-04-19T04:11:32;99843.66;;;17.10;56.89
79563;BME280;69026;50.980;11.314;2023-04-19T04:13:57;99843.66;;;17.10;56.94
79563;BME280;69026;50.980;11.314;2023-04-19T04:16:27;99842.84;;;17.09;56.96
79563;BME280;69026;50.980;11.314;2023-04-19T04:18:54;99848.31;;;17.09;56.80
79563;BME280;69026;50.980;11.314;2023-04-19T04:21:23;99858.47;;;17.09;56.88
79563;BME280;69026;50.980;11.314;2023-04-19T04:23:49;99858.47;;;17.09;56.83
79563;BME280;69026;50.980;11.314;2023-04-19T04:26:24;99852.13;;;17.08;57.05
79563;BME280;69026;50.980;11.314;2023-04-19T04:29:06;99856.78;;;17.08;57.12
79563;BME280;69026;50.980;11.314;2023-04-19T04:31:34;99853.22;;;17.07;57.01
79563;BME280;69026;50.980;11.314;2023-04-19T04:34:03;99857.88;;;17.07;56.73
79563;BME280;69026;50.980;11.314;2023-04-19T04:36:30;99860.63;;;17.07;56.94
79563;BME280;69026;50.980;11.314;2023-04-19T04:38:57;99855.13;;;17.07;57.01
79563;BME280;69026;50.980;11.314;2023-04-19T04:41:23;99854.31;;;17.06;56.94
79563;BME280;69026;50.980;11.314;2023-04-19T04:43:49;99857.88;;;17.07;56.85
79563;BME280;69026;50.980;11.314;2023-04-19T04:46:18;99859.78;;;17.06;57.11
79563;BME280;69026;50.980;11.314;2023-04-19T04:48:44;99860.63;;;17.07;56.71
79563;BME280;69026;50.980;11.314;2023-04-19T04:51:10;99860.63;;;17.07;56.94
79563;BME280;69026;50.980;11.314;2023-04-19T04:53:37;99855.13;;;17.07;56.88
79563;BME280;69026;50.980;11.314;2023-04-19T04:56:05;99855.13;;;17.07;56.87
79563;BME280;69026;50.980;11.314;2023-04-19T04:58:31;99855.13;;;17.07;56.84
79563;BME280;69026;50.980;11.314;2023-04-19T05:01:02;99855.94;;;17.07;56.92
79563;BME280;69026;50.980;11.314;2023-04-19T05:03:31;99855.13;;;17.07;56.91
79563;BME280;69026;50.980;11.314;2023-04-19T05:06:00;99857.88;;;17.07;56.89
79563;BME280;69026;50.980;11.314;2023-04-19T05:08:28;99846.91;;;17.07;56.92
79563;BME280;69026;50.980;11.314;2023-04-19T05:10:59;99857.03;;;17.06;56.96
79563;BME280;69026;50.980;11.314;2023-04-19T05:13:28;99860.63;;;17.07;57.01
79563;BME280;69026;50.980;11.314;2023-04-19T05:15:54;99850.72;;;17.06;56.83
79563;BME280;69026;50.980;11.314;2023-04-19T05:18:20;99850.72;;;17.06;56.83
79563;BME280;69026;50.980;11.314;2023-04-19T05:20:47;99847.13;;;17.05;56.75
79563;BME280;69026;50.980;11.314;2023-04-19T05:23:18;99849.88;;;17.05;56.81
79563;BME280;69026;50.980;11.314;2023-04-19T05:25:44;99852.63;;;17.05;56.73
79563;BME280;69026;50.980;11.314;2023-04-19T05:28:11;99845.50;;;17.04;57.01
79563;BME280;69026;50.980;11.314;2023-04-19T05:30:44;99848.22;;;17.04;56.89
79563;BME280;69026;50.980;11.314;2023-04-19T05:33:10;99850.16;;;17.04;56.76
79563;BME280;69026;50.980;11.314;2023-04-19T05:35:37;99844.66;;;17.04;56.99
79563;BME280;69026;50.980;11.314;2023-04-19T05:38:03;99846.31;;;17.05;56.79
79563;BME280;69026;50.980;11.314;2023-04-19T05:40:28;99845.50;;;17.04;56.83
79563;BME280;69026;50.980;11.314;2023-04-19T05:42:54;99842.75;;;17.04;56.88
79563;BME280;69026;50.980;11.314;2023-04-19T05:45:20;99846.31;;;17.05;56.81
79563;BME280;69026;50.980;11.314;2023-04-19T05:47:46;99838.91;;;17.05;56.82
79563;BME280;69026;50.980;11.314;2023-04-19T05:50:33;99846.31;;;17.05;56.87
79563;BME280;69026;50.980;11.314;2023-04-19T05:53:24;99841.66;;;17.05;56.97
79563;BME280;69026;50.980;11.314;2023-04-19T05:55:51;99843.56;;;17.05;56.89
79563;BME280;69026;50.980;11.314;2023-04-19T05:58:17;99846.31;;;17.05;56.83
79563;BME280;69026;50.980;11.314;2023-04-19T06:00:44;99844.66;;;17.04;56.97
79563;BME280;69026;50.980;11.314;2023-04-19T06:03:12;99837.25;;;17.04;56.73
79563;BME280;69026;50.980;11.314;2023-04-19T06:05:38;99846.31;;;17.05;56.82
79563;BME280;69026;50.980;11.314;2023-04-19T06:08:05;99841.91;;;17.04;56.94
79563;BME280;69026;50.980;11.314;2023-04-19T06:10:31;99847.41;;;17.04;56.84
79563;BME280;69026;50.980;11.314;2023-04-19T06:12:57;99843.81;;;17.03;56.67
79563;BME280;69026;50.980;11.314;2023-04-19T06:15:23;99841.91;;;17.04;56.86
79563;BME280;69026;50.980;11.314;2023-04-19T06:17:51;99840.00;;;17.04;56.66
79563;BME280;69026;50.980;11.314;2023-04-19T06:20:17;99841.06;;;17.03;56.96
79563;BME280;69026;50.980;11.314;2023-04-19T06:22:44;99839.19;;;17.04;56.81
79563;BME280;69026;50.980;11.314;2023-04-19T06:25:10;99838.31;;;17.03;56.76
79563;BME280;69026;50.980;11.314;2023-04-19T06:27:36;99840.81;;;17.05;56.74
79563;BME280;69026;50.980;11.314;2023-04-19T06:30:02;99838.69;;;17.07;56.81
79563;BME280;69026;50.980;11.314;2023-04-19T06:32:29;99842.00;;;17.09;56.66
79563;BME280;69026;50.980;11.314;2023-04-19T06:34:55;99842.00;;;17.09;56.56
79563;BME280;69026;50.980;11.314;2023-04-19T06:37:20;99847.81;;;17.12;56.54
79563;BME280;69026;50.980;11.314;2023-04-19T06:39:46;99844.84;;;17.14;56.62
79563;BME280;69026;50.980;11.314;2023-04-19T06:42:13;99843.75;;;17.15;56.64
79563;BME280;69026;50.980;11.314;2023-04-19T06:44:39;99844.56;;;17.15;56.69
79563;BME280;69026;50.980;11.314;2023-04-19T06:47:05;99844.56;;;17.15;56.57
79563;BME280;69026;50.980;11.314;2023-04-19T06:49:31;99854.47;;;17.16;56.69
79563;BME280;69026;50.980;11.314;2023-04-19T06:51:57;99860.78;;;17.17;56.56
79563;BME280;69026;50.980;11.314;2023-04-19T06:54:23;99862.47;;;17.18;56.71
79563;BME280;69026;50.980;11.314;2023-04-19T06:56:49;99851.50;;;17.18;56.42
79563;BME280;69026;50.980;11.314;2023-04-19T06:59:16;99852.31;;;17.19;56.64
79563;BME280;69026;50.980;11.314;2023-04-19T07:01:44;99853.16;;;17.19;56.62
79563;BME280;69026;50.980;11.314;2023-04-19T07:04:11;99847.66;;;17.19;56.56
79563;BME280;69026;50.980;11.314;2023-04-19T07:06:37;99848.50;;;17.20;56.61
79563;BME280;69026;50.980;11.314;2023-04-19T07:09:04;99855.66;;;17.21;56.60
79563;BME280;69026;50.980;11.314;2023-04-19T07:11:30;99845.50;;;17.21;56.49
79563;BME280;69026;50.980;11.314;2023-04-19T07:13:57;99842.53;;;17.23;56.50
79563;BME280;69026;50.980;11.314;2023-04-19T07:16:23;99846.69;;;17.25;56.47
79563;BME280;69026;50.980;11.314;2023-04-19T07:18:48;99842.84;;;17.26;56.38
79563;BME280;69026;50.980;11.314;2023-04-19T07:21:14;99840.69;;;17.28;56.39
79563;BME280;69026;50.980;11.314;2023-04-19T07:23:40;99836.03;;;17.29;56.54
79563;BME280;69026;50.980;11.314;2023-04-19T07:26:06;99834.13;;;17.29;56.21
79563;BME280;69026;50.980;11.314;2023-04-19T07:28:32;99828.41;;;17.31;56.26
79563;BME280;69026;50.980;11.314;2023-04-19T07:30:58;99830.06;;;17.32;56.31
79563;BME280;69026;50.980;11.314;2023-04-19T07:33:25;99831.97;;;17.31;56.34
79563;BME280;69026;50.980;11.314;2023-04-19T07:35:52;99821.59;;;17.33;56.31
79563;BME280;69026;50.980;11.314;2023-04-19T07:38:18;99828.47;;;17.36;56.01
79563;BME280;69026;50.980;11.314;2023-04-19T07:40:44;99824.09;;;17.35;53.49
79563;BME280;69026;50.980;11.314;2023-04-19T07:43:10;99826.25;;;17.33;51.48
79563;BME280;69026;50.980;11.314;2023-04-19T07:45:36;99818.25;;;17.31;51.17
79563;BME280;69026;50.980;11.314;2023-04-19T07:48:03;99814.47;;;17.32;49.76
79563;BME280;69026;50.980;11.314;2023-04-19T07:50:29;99820.25;;;17.36;49.60
79563;BME280;69026;50.980;11.314;2023-04-19T07:52:55;99827.66;;;17.35;47.98
79563;BME280;69026;50.980;11.314;2023-04-19T07:55:21;99824.91;;;17.35;46.62
79563;BME280;69026;50.980;11.314;2023-04-19T07:57:48;99823.25;;;17.34;45.71
79563;BME280;69026;50.980;11.314;2023-04-19T08:00:14;99824.91;;;17.35;44.96
79563;BME280;69026;50.980;11.314;2023-04-19T08:02:44;99825.50;;;17.37;43.84
79563;BME280;69026;50.980;11.314;2023-04-19T08:05:11;99827.16;;;17.38;44.29
79563;BME280;69026;50.980;11.314;2023-04-19T08:07:38;99820.03;;;17.37;42.29
79563;BME280;69026;50.980;11.314;2023-04-19T08:10:05;99819.75;;;17.39;42.24
79563;BME280;69026;50.980;11.314;2023-04-19T08:12:32;99817.28;;;17.37;42.18
79563;BME280;69026;50.980;11.314;2023-04-19T08:14:58;99815.59;;;17.36;42.05
79563;BME280;69026;50.980;11.314;2023-04-19T08:17:23;99814.84;;;17.41;40.87
79563;BME280;69026;50.980;11.314;2023-04-19T08:19:49;99804.47;;;17.43;40.84
79563;BME280;69026;50.980;11.314;2023-04-19T08:22:16;99806.16;;;17.44;40.36
79563;BME280;69026;50.980;11.314;2023-04-19T08:24:43;99795.41;;;17.43;39.46
79563;BME280;69026;50.980;11.314;2023-04-19T08:27:09;99791.84;;;17.42;39.17
79563;BME280;69026;50.980;11.314;2023-04-19T08:29:35;99791.25;;;17.40;38.82
79563;BME280;69026;50.980;11.314;2023-04-19T08:32:06;99791.38;;;18.01;43.06
79563;BME280;69026;50.980;11.314;2023-04-19T08:34:35;99791.56;;;18.16;40.28
79563;BME280;69026;50.980;11.314;2023-04-19T08:37:02;99792.53;;;18.27;40.41
79563;BME280;69026;50.980;11.314;2023-04-19T08:39:32;99800.00;;;18.32;40.32
79563;BME280;69026;50.980;11.314;2023-04-19T08:42:06;99791.50;;;18.33;40.59
79563;BME280;69026;50.980;11.314;2023-04-19T08:44:34;99792.31;;;18.34;40.48
79563;BME280;69026;50.980;11.314;2023-04-19T08:47:00;99794.00;;;18.35;40.41
79563;BME280;69026;50.980;11.314;2023-04-19T08:49:29;99791.50;;;18.33;40.51
79563;BME280;69026;50.980;11.314;2023-04-19T08:51:56;99799.16;;;17.87;35.03
79563;BME280;69026;50.980;11.314;2023-04-19T08:54:23;99790.00;;;17.48;36.20
79563;BME280;69026;50.980;11.314;2023-04-19T08:56:49;99792.75;;;17.31;35.47
79563;BME280;69026;50.980;11.314;2023-04-19T08:59:15;99786.16;;;17.15;35.96
79563;BME280;69026;50.980;11.314;2023-04-19T09:01:40;99784.53;;;17.14;35.56
79563;BME280;69026;50.980;11.314;2023-04-19T09:04:07;99778.19;;;16.97;34.88
79563;BME280;69026;50.980;11.314;2023-04-19T09:06:36;99778.00;;;17.03;34.00
79563;BME280;69026;50.980;11.314;2023-04-19T09:09:14;99776.00;;;16.99;33.69
79563;BME280;69026;50.980;11.314;2023-04-19T09:11:41;99770.53;;;16.99;33.75
79563;BME280;69026;50.980;11.314;2023-04-19T09:14:11;99774.66;;;16.84;34.33
79563;BME280;69026;50.980;11.314;2023-04-19T09:16:37;99765.13;;;16.75;35.00
79563;BME280;69026;50.980;11.314;2023-04-19T09:19:04;99771.22;;;16.77;35.17
79563;BME280;69026;50.980;11.314;2023-04-19T09:21:31;99777.66;;;16.83;36.51
79563;BME280;69026;50.980;11.314;2023-04-19T09:23:58;99765.69;;;16.89;37.44
79563;BME280;69026;50.980;11.314;2023-04-19T09:26:25;99767.22;;;16.97;38.61
79563;BME280;69026;50.980;11.314;2023-04-19T09:28:57;99764.56;;;17.02;39.38
79563;BME280;69026;50.980;11.314;2023-04-19T09:31:26;99749.84;;;17.08;40.04
79563;BME280;69026;50.980;11.314;2023-04-19T09:33:53;99755.53;;;17.18;40.18
79563;BME280;69026;50.980;11.314;2023-04-19T09:36:32;99752.34;;;17.26;40.67
79563;BME280;69026;50.980;11.314;2023-04-19T09:38:58;99748.13;;;17.35;41.14
79563;BME280;69026;50.980;11.314;2023-04-19T09:41:24;99743.81;;;17.40;41.31
79563;BME280;69026;50.980;11.314;2023-04-19T09:43:51;99752.09;;;17.45;41.79
79563;BME280;69026;50.980;11.314;2023-04-19T09:46:33;99747.78;;;17.49;42.09
79563;BME280;69026;50.980;11.314;2023-04-19T09:49:26;99741.28;;;17.55;42.38
79563;BME280;69026;50.980;11.314;2023-04-19T09:51:53;99735.84;;;17.60;42.67
79563;BME280;69026;50.980;11.314;2023-04-19T09:54:21;99732.94;;;17.67;42.93
79563;BME280;69026;50.980;11.314;2023-04-19T09:56:49;99730.53;;;17.70;43.16
79563;BME280;69026;50.980;11.314;2023-04-19T09:59:15;99735.56;;;17.78;43.26
79563;BME280;69026;50.980;11.314;2023-04-19T10:04:14;99741.44;;;17.82;43.84
79563;BME280;69026;50.980;11.314;2023-04-19T10:06:51;99731.84;;;17.85;44.12
79563;BME280;69026;50.980;11.314;2023-04-19T10:09:18;99731.09;;;17.89;44.35
79563;BME280;69026;50.980;11.314;2023-04-19T10:11:49;99729.19;;;17.90;44.29
79563;BME280;69026;50.980;11.314;2023-04-19T10:14:20;99717.91;;;17.91;44.92
79563;BME280;69026;50.980;11.314;2023-04-19T10:16:46;99718.25;;;17.95;44.99
79563;BME280;69026;50.980;11.314;2023-04-19T10:19:15;99706.75;;;17.98;45.14
79563;BME280;69026;50.980;11.314;2023-04-19T10:21:42;99701.28;;;17.98;44.88
79563;BME280;69026;50.980;11.314;2023-04-19T10:24:11;99697.50;;;18.04;44.74
79563;BME280;69026;50.980;11.314;2023-04-19T10:27:12;99697.22;;;18.06;45.52
79563;BME280;69026;50.980;11.314;2023-04-19T10:32:16;99691.31;;;18.41;45.17
79563;BME280;69026;50.980;11.314;2023-04-19T10:34:42;99698.06;;;19.15;43.55
79563;BME280;69026;50.980;11.314;2023-04-19T10:37:12;99682.72;;;20.24;41.43
79563;BME280;69026;50.980;11.314;2023-04-19T10:39:39;99678.69;;;21.04;39.25
79563;BME280;69026;50.980;11.314;2023-04-19T10:42:06;99681.47;;;20.88;40.21
79563;BME280;69026;50.980;11.314;2023-04-19T10:44:32;99678.81;;;20.10;41.51
79563;BME280;69026;50.980;11.314;2023-04-19T10:46:58;99676.97;;;20.51;41.05
79563;BME280;69026;50.980;11.314;2023-04-19T10:49:27;99665.19;;;20.87;39.84
79563;BME280;69026;50.980;11.314;2023-04-19T10:51:53;99667.31;;;20.49;40.68
79563;BME280;69026;50.980;11.314;2023-04-19T10:54:37;99655.53;;;20.84;40.05
79563;BME280;69026;50.980;11.314;2023-04-19T10:57:12;99656.88;;;20.97;40.04
79563;BME280;69026;50.980;11.314;2023-04-19T10:59:38;99649.72;;;20.60;40.64
79563;BME280;69026;50.980;11.314;2023-04-19T11:07:17;99631.31;;;19.72;43.04
79563;BME280;69026;50.980;11.314;2023-04-19T11:09:47;99633.13;;;19.56;43.28
79563;BME280;69026;50.980;11.314;2023-04-19T11:12:15;99623.50;;;19.64;43.58
79563;BME280;69026;50.980;11.314;2023-04-19T11:14:43;99618.00;;;19.64;43.16
79563;BME280;69026;50.980;11.314;2023-04-19T11:20:01;99619.50;;;19.82;42.39
79563;BME280;69026;50.980;11.314;2023-04-19T11:22:32;99634.09;;;19.87;42.74
79563;BME280;69026;50.980;11.314;2023-04-19T11:25:09;99606.00;;;19.80;43.59
79563;BME280;69026;50.980;11.314;2023-04-19T11:27:35;99610.38;;;19.71;43.49
79563;BME280;69026;50.980;11.314;2023-04-19T11:32:32;99609.19;;;19.62;44.13
79563;BME280;69026;50.980;11.314;2023-04-19T11:35:03;99611.84;;;19.36;44.59
79563;BME280;69026;50.980;11.314;2023-04-19T11:37:34;99611.22;;;19.29;45.06
79563;BME280;69026;50.980;11.314;2023-04-19T11:40:00;99615.09;;;19.28;44.78
79563;BME280;69026;50.980;11.314;2023-04-19T11:42:26;99605.97;;;19.17;45.46
79563;BME280;69026;50.980;11.314;2023-04-19T11:44:53;99608.13;;;19.10;45.75
79563;BME280;69026;50.980;11.314;2023-04-19T11:47:20;99610.59;;;19.12;45.97
79563;BME280;69026;50.980;11.314;2023-04-19T11:49:46;99602.53;;;19.00;46.48
79563;BME280;69026;50.980;11.314;2023-04-19T11:52:19;99599.59;;;19.12;46.08
79563;BME280;69026;50.980;11.314;2023-04-19T11:54:45;99590.78;;;19.15;46.27
79563;BME280;69026;50.980;11.314;2023-04-19T11:57:12;99597.03;;;19.00;45.97
79563;BME280;69026;50.980;11.314;2023-04-19T11:59:38;99583.56;;;18.98;46.54
79563;BME280;69026;50.980;11.314;2023-04-19T12:02:08;99593.47;;;19.04;46.58
79563;BME280;69026;50.980;11.314;2023-04-19T12:04:35;99595.69;;;19.07;46.38
79563;BME280;69026;50.980;11.314;2023-04-19T12:07:02;99598.09;;;18.94;46.73
79563;BME280;69026;50.980;11.314;2023-04-19T12:09:28;99598.47;;;18.75;47.31
79563;BME280;69026;50.980;11.314;2023-04-19T12:11:54;99592.34;;;18.63;47.76
79563;BME280;69026;50.980;11.314;2023-04-19T12:14:22;99597.00;;;18.62;47.90
79563;BME280;69026;50.980;11.314;2023-04-19T12:19:34;99580.69;;;18.83;46.41
79563;BME280;69026;50.980;11.314;2023-04-19T12:22:08;99582.72;;;18.60;46.63
79563;BME280;69026;50.980;11.314;2023-04-19T12:24:36;99578.81;;;18.56;46.71
79563;BME280;69026;50.980;11.314;2023-04-19T12:27:02;99573.28;;;18.51;46.77
79563;BME280;69026;50.980;11.314;2023-04-19T12:29:28;99573.25;;;18.46;47.01
79563;BME280;69026;50.980;11.314;2023-04-19T12:31:54;99563.06;;;18.41;47.32
79563;BME280;69026;50.980;11.314;2023-04-19T12:34:20;99557.19;;;18.33;47.65
79563;BME280;69026;50.980;11.314;2023-04-19T12:36:45;99558.81;;;18.29;47.89
79563;BME280;69026;50.980;11.314;2023-04-19T12:39:11;99563.69;;;18.21;48.15
79563;BME280;69026;50.980;11.314;2023-04-19T12:41:38;99561.72;;;18.17;48.23
79563;BME280;69026;50.980;11.314;2023-04-19T12:44:03;99559.75;;;18.12;48.37
79563;BME280;69026;50.980;11.314;2023-04-19T12:46:29;99564.13;;;18.08;48.54
79563;BME280;69026;50.980;11.314;2023-04-19T12:48:55;99552.00;;;18.04;48.70
79563;BME280;69026;50.980;11.314;2023-04-19T12:51:21;99543.47;;;18.06;48.70
79563;BME280;69026;50.980;11.314;2023-04-19T12:53:48;99533.34;;;18.06;48.62
79563;BME280;69026;50.980;11.314;2023-04-19T12:56:14;99537.50;;;18.09;48.64
79563;BME280;69026;50.980;11.314;2023-04-19T12:58:40;99531.41;;;18.07;48.79
79563;BME280;69026;50.980;11.314;2023-04-19T13:01:06;99522.88;;;18.03;48.92
79563;BME280;69026;50.980;11.314;2023-04-19T13:03:32;99523.72;;;18.04;48.75
79563;BME280;69026;50.980;11.314;2023-04-19T13:06:01;99515.72;;;18.02;49.02
79563;BME280;69026;50.980;11.314;2023-04-19T13:08:27;99513.22;;;18.00;49.12
79563;BME280;69026;50.980;11.314;2023-04-19T13:10:54;99512.75;;;18.04;49.22